sensor_id;sensor_type;location;lat;lon;timestamp;P1;durP1;ratioP1;P2;durP2;ratioP2
35306;SDS011;21420;52.196;21.416;2022-12-18T00:01:26;38.55;;;24.37;;
35306;SDS011;21420;52.196;21.416;2022-12-18T00:03:57;41.55;;;25.40;;
35306;SDS011;21420;52.196;21.416;2022-12-18T00:06:24;38.75;;;24.80;;
35306;SDS011;21420;52.196;21.416;2022-12-18T00:08:53;39.45;;;24.37;;
35306;SDS011;21420;52.196;21.416;2022-12-18T00:11:21;39.48;;;24.27;;
35306;SDS011;21420;52.196;21.416;2022-12-18T00:13:50;40.48;;;25.32;;
35306;SDS011;21420;52.196;21.416;2022-12-18T00:16:18;36.48;;;23.80;;
35306;SDS011;21420;52.196;21.416;2022-12-18T00:18:46;36.10;;;23.87;;
35306;SDS011;21420;52.196;21.416;2022-12-18T00:21:19;32.88;;;21.55;;
35306;SDS011;21420;52.196;21.416;2022-12-18T00:23:47;33.50;;;21.60;;
35306;SDS011;21420;52.196;21.416;2022-12-18T00:26:30;31.80;;;20.10;;
35306;SDS011;21420;52.196;21.416;2022-12-18T00:28:59;35.10;;;20.95;;
35306;SDS011;21420;52.196;21.416;2022-12-18T00:31:35;34.60;;;20.72;;
35306;SDS011;21420;52.196;21.416;2022-12-18T00:34:02;32.30;;;20.48;;
35306;SDS011;21420;52.196;21.416;2022-12-18T00:36:30;29.25;;;18.32;;
35306;SDS011;21420;52.196;21.416;2022-12-18T00:38:59;35.08;;;19.52;;
35306;SDS011;21420;52.196;21.416;2022-12-18T00:44:14;30.50;;;19.35;;
35306;SDS011;21420;52.196;21.416;2022-12-18T00:46:44;30.85;;;19.62;;
35306;SDS011;21420;52.196;21.416;2022-12-18T00:49:12;31.00;;;19.00;;
35306;SDS011;21420;52.196;21.416;2022-12-18T00:51:39;33.65;;;21.15;;
35306;SDS011;21420;52.196;21.416;2022-12-18T00:54:05;32.98;;;20.08;;
35306;SDS011;21420;52.196;21.416;2022-12-18T00:56:32;32.13;;;19.67;;
35306;SDS011;21420;52.196;21.416;2022-12-18T00:58:58;31.65;;;18.85;;
35306;SDS011;21420;52.196;21.416;2022-12-18T01:01:24;31.73;;;19.40;;
35306;SDS011;21420;52.196;21.416;2022-12-18T01:03:51;32.28;;;20.25;;
35306;SDS011;21420;52.196;21.416;2022-12-18T01:06:19;30.52;;;19.70;;
35306;SDS011;21420;52.196;21.416;2022-12-18T01:08:46;32.33;;;19.65;;
35306;SDS011;21420;52.196;21.416;2022-12-18T01:11:13;29.25;;;19.57;;
35306;SDS011;21420;52.196;21.416;2022-12-18T01:13:43;32.23;;;19.70;;
35306;SDS011;21420;52.196;21.416;2022-12-18T01:16:13;33.42;;;20.57;;
35306;SDS011;21420;52.196;21.416;2022-12-18T01:18:41;32.33;;;20.00;;
35306;SDS011;21420;52.196;21.416;2022-12-18T01:21:09;32.03;;;19.95;;
35306;SDS011;21420;52.196;21.416;2022-12-18T01:23:39;30.65;;;19.27;;
35306;SDS011;21420;52.196;21.416;2022-12-18T01:26:06;35.63;;;20.77;;
35306;SDS011;21420;52.196;21.416;2022-12-18T01:28:35;35.30;;;21.27;;
35306;SDS011;21420;52.196;21.416;2022-12-18T01:31:10;34.98;;;20.88;;
35306;SDS011;21420;52.196;21.416;2022-12-18T01:33:43;38.30;;;22.27;;
35306;SDS011;21420;52.196;21.416;2022-12-18T01:36:20;35.70;;;21.05;;
35306;SDS011;21420;52.196;21.416;2022-12-18T01:38:50;37.45;;;22.75;;
35306;SDS011;21420;52.196;21.416;2022-12-18T01:41:18;37.40;;;22.42;;
35306;SDS011;21420;52.196;21.416;2022-12-18T01:43:53;34.88;;;22.02;;
35306;SDS011;21420;52.196;21.416;2022-12-18T01:46:24;36.60;;;21.35;;
35306;SDS011;21420;52.196;21.416;2022-12-18T01:48:55;35.78;;;21.37;;
35306;SDS011;21420;52.196;21.416;2022-12-18T01:51:26;37.88;;;22.75;;
35306;SDS011;21420;52.196;21.416;2022-12-18T01:53:56;31.77;;;19.65;;
35306;SDS011;21420;52.196;21.416;2022-12-18T01:56:23;31.50;;;19.50;;
35306;SDS011;21420;52.196;21.416;2022-12-18T01:59:05;31.45;;;18.92;;
35306;SDS011;21420;52.196;21.416;2022-12-18T02:01:35;33.67;;;18.80;;
35306;SDS011;21420;52.196;21.416;2022-12-18T02:04:23;30.30;;;19.62;;
35306;SDS011;21420;52.196;21.416;2022-12-18T02:15:18;34.20;;;19.02;;
35306;SDS011;21420;52.196;21.416;2022-12-18T02:18:03;33.00;;;19.40;;
35306;SDS011;21420;52.196;21.416;2022-12-18T02:20:45;34.65;;;21.65;;
35306;SDS011;21420;52.196;21.416;2022-12-18T02:29:05;34.98;;;20.77;;
35306;SDS011;21420;52.196;21.416;2022-12-18T02:31:40;33.10;;;20.92;;
35306;SDS011;21420;52.196;21.416;2022-12-18T02:34:06;37.17;;;21.30;;
35306;SDS011;21420;52.196;21.416;2022-12-18T02:36:36;38.25;;;21.45;;
35306;SDS011;21420;52.196;21.416;2022-12-18T02:39:07;33.50;;;21.68;;
35306;SDS011;21420;52.196;21.416;2022-12-18T02:41:38;35.05;;;21.40;;
35306;SDS011;21420;52.196;21.416;2022-12-18T02:44:07;32.40;;;20.12;;
35306;SDS011;21420;52.196;21.416;2022-12-18T02:46:42;38.92;;;22.30;;
35306;SDS011;21420;52.196;21.416;2022-12-18T02:49:35;33.90;;;20.95;;
35306;SDS011;21420;52.196;21.416;2022-12-18T02:52:17;42.03;;;23.02;;
35306;SDS011;21420;52.196;21.416;2022-12-18T02:57:45;41.40;;;23.22;;
35306;SDS011;21420;52.196;21.416;2022-12-18T03:00:18;36.85;;;22.02;;
35306;SDS011;21420;52.196;21.416;2022-12-18T03:02:54;35.45;;;22.42;;
35306;SDS011;21420;52.196;21.416;2022-12-18T03:10:57;39.23;;;21.57;;
35306;SDS011;21420;52.196;21.416;2022-12-18T03:18:53;38.78;;;22.55;;
35306;SDS011;21420;52.196;21.416;2022-12-18T03:21:26;38.00;;;23.12;;
35306;SDS011;21420;52.196;21.416;2022-12-18T03:23:58;36.68;;;21.52;;
35306;SDS011;21420;52.196;21.416;2022-12-18T03:26:26;38.23;;;21.45;;
35306;SDS011;21420;52.196;21.416;2022-12-18T03:29:01;35.52;;;21.85;;
35306;SDS011;21420;52.196;21.416;2022-12-18T03:31:35;34.40;;;20.20;;
35306;SDS011;21420;52.196;21.416;2022-12-18T03:34:09;35.52;;;20.12;;
35306;SDS011;21420;52.196;21.416;2022-12-18T03:36:41;33.02;;;20.82;;
35306;SDS011;21420;52.196;21.416;2022-12-18T03:39:08;30.60;;;18.95;;
35306;SDS011;21420;52.196;21.416;2022-12-18T03:44:13;30.17;;;18.87;;
35306;SDS011;21420;52.196;21.416;2022-12-18T03:52:47;32.70;;;19.50;;
35306;SDS011;21420;52.196;21.416;2022-12-18T03:55:26;29.77;;;17.42;;
35306;SDS011;21420;52.196;21.416;2022-12-18T03:57:58;30.97;;;18.23;;
35306;SDS011;21420;52.196;21.416;2022-12-18T04:00:29;32.55;;;18.50;;
35306;SDS011;21420;52.196;21.416;2022-12-18T04:05:28;32.83;;;19.70;;
35306;SDS011;21420;52.196;21.416;2022-12-18T04:07:56;35.20;;;20.50;;
35306;SDS011;21420;52.196;21.416;2022-12-18T04:10:24;34.67;;;21.60;;
35306;SDS011;21420;52.196;21.416;2022-12-18T04:12:50;31.48;;;20.17;;
35306;SDS011;21420;52.196;21.416;2022-12-18T04:15:20;30.97;;;18.48;;
35306;SDS011;21420;52.196;21.416;2022-12-18T04:17:47;36.30;;;19.45;;
35306;SDS011;21420;52.196;21.416;2022-12-18T04:20:16;30.40;;;18.40;;
35306;SDS011;21420;52.196;21.416;2022-12-18T04:22:44;31.40;;;18.52;;
35306;SDS011;21420;52.196;21.416;2022-12-18T04:25:10;31.05;;;19.00;;
35306;SDS011;21420;52.196;21.416;2022-12-18T04:27:38;30.95;;;20.68;;
35306;SDS011;21420;52.196;21.416;2022-12-18T04:30:05;29.87;;;19.37;;
35306;SDS011;21420;52.196;21.416;2022-12-18T04:32:33;31.35;;;19.15;;
35306;SDS011;21420;52.196;21.416;2022-12-18T04:35:00;26.82;;;18.50;;
35306;SDS011;21420;52.196;21.416;2022-12-18T04:37:27;30.10;;;18.85;;
35306;SDS011;21420;52.196;21.416;2022-12-18T04:39:53;27.48;;;17.87;;
35306;SDS011;21420;52.196;21.416;2022-12-18T04:42:21;28.83;;;17.82;;
35306;SDS011;21420;52.196;21.416;2022-12-18T04:44:47;28.12;;;18.40;;
35306;SDS011;21420;52.196;21.416;2022-12-18T04:47:14;28.02;;;17.92;;
35306;SDS011;21420;52.196;21.416;2022-12-18T04:49:40;29.63;;;18.20;;
35306;SDS011;21420;52.196;21.416;2022-12-18T04:52:08;32.28;;;19.42;;
35306;SDS011;21420;52.196;21.416;2022-12-18T04:54:34;30.57;;;19.45;;
35306;SDS011;21420;52.196;21.416;2022-12-18T04:57:00;27.10;;;17.87;;
35306;SDS011;21420;52.196;21.416;2022-12-18T04:59:27;31.68;;;19.87;;
35306;SDS011;21420;52.196;21.416;2022-12-18T05:01:53;31.20;;;20.80;;
35306;SDS011;21420;52.196;21.416;2022-12-18T05:04:19;33.28;;;19.92;;
35306;SDS011;21420;52.196;21.416;2022-12-18T05:06:45;25.60;;;18.00;;
35306;SDS011;21420;52.196;21.416;2022-12-18T05:09:11;29.90;;;19.02;;
35306;SDS011;21420;52.196;21.416;2022-12-18T05:11:38;29.72;;;18.98;;
35306;SDS011;21420;52.196;21.416;2022-12-18T05:14:04;29.75;;;18.27;;
35306;SDS011;21420;52.196;21.416;2022-12-18T05:16:30;24.87;;;16.65;;
35306;SDS011;21420;52.196;21.416;2022-12-18T05:18:56;26.93;;;15.48;;
35306;SDS011;21420;52.196;21.416;2022-12-18T05:21:23;27.40;;;18.65;;
35306;SDS011;21420;52.196;21.416;2022-12-18T05:23:49;36.35;;;20.85;;
35306;SDS011;21420;52.196;21.416;2022-12-18T05:26:16;31.25;;;19.82;;
35306;SDS011;21420;52.196;21.416;2022-12-18T05:28:44;27.07;;;18.62;;
35306;SDS011;21420;52.196;21.416;2022-12-18T05:31:11;27.45;;;19.90;;
35306;SDS011;21420;52.196;21.416;2022-12-18T05:33:38;32.35;;;20.90;;
35306;SDS011;21420;52.196;21.416;2022-12-18T05:36:05;34.83;;;21.82;;
35306;SDS011;21420;52.196;21.416;2022-12-18T05:38:34;32.65;;;20.77;;
35306;SDS011;21420;52.196;21.416;2022-12-18T05:41:03;26.17;;;16.82;;
35306;SDS011;21420;52.196;21.416;2022-12-18T05:43:30;21.93;;;13.93;;
35306;SDS011;21420;52.196;21.416;2022-12-18T05:46:02;21.00;;;12.93;;
35306;SDS011;21420;52.196;21.416;2022-12-18T05:48:36;21.73;;;13.13;;
35306;SDS011;21420;52.196;21.416;2022-12-18T05:51:03;19.48;;;12.90;;
35306;SDS011;21420;52.196;21.416;2022-12-18T05:53:36;19.55;;;13.20;;
35306;SDS011;21420;52.196;21.416;2022-12-18T05:56:03;19.57;;;13.22;;
35306;SDS011;21420;52.196;21.416;2022-12-18T05:58:33;20.20;;;13.90;;
35306;SDS011;21420;52.196;21.416;2022-12-18T06:01:06;21.70;;;14.78;;
35306;SDS011;21420;52.196;21.416;2022-12-18T06:03:39;21.33;;;13.50;;
35306;SDS011;21420;52.196;21.416;2022-12-18T06:06:19;20.00;;;14.00;;
35306;SDS011;21420;52.196;21.416;2022-12-18T06:08:51;22.67;;;14.20;;
35306;SDS011;21420;52.196;21.416;2022-12-18T06:11:20;21.68;;;13.90;;
35306;SDS011;21420;52.196;21.416;2022-12-18T06:13:50;21.37;;;14.28;;
35306;SDS011;21420;52.196;21.416;2022-12-18T06:16:18;23.15;;;15.03;;
35306;SDS011;21420;52.196;21.416;2022-12-18T06:18:45;22.80;;;15.05;;
35306;SDS011;21420;52.196;21.416;2022-12-18T06:21:11;24.20;;;14.63;;
35306;SDS011;21420;52.196;21.416;2022-12-18T06:23:37;25.00;;;16.10;;
35306;SDS011;21420;52.196;21.416;2022-12-18T06:26:06;23.50;;;16.35;;
35306;SDS011;21420;52.196;21.416;2022-12-18T06:28:34;26.27;;;16.02;;
35306;SDS011;21420;52.196;21.416;2022-12-18T06:31:00;24.65;;;16.02;;
35306;SDS011;21420;52.196;21.416;2022-12-18T06:33:28;20.45;;;14.20;;
35306;SDS011;21420;52.196;21.416;2022-12-18T06:36:06;23.50;;;14.87;;
35306;SDS011;21420;52.196;21.416;2022-12-18T06:38:37;23.85;;;14.45;;
35306;SDS011;21420;52.196;21.416;2022-12-18T06:41:10;25.97;;;15.30;;
35306;SDS011;21420;52.196;21.416;2022-12-18T06:43:40;25.57;;;16.10;;
35306;SDS011;21420;52.196;21.416;2022-12-18T06:46:07;27.37;;;15.48;;
35306;SDS011;21420;52.196;21.416;2022-12-18T06:48:34;22.40;;;15.03;;
35306;SDS011;21420;52.196;21.416;2022-12-18T06:51:00;26.05;;;13.45;;
35306;SDS011;21420;52.196;21.416;2022-12-18T06:53:27;23.95;;;14.30;;
35306;SDS011;21420;52.196;21.416;2022-12-18T06:56:05;23.67;;;14.30;;
35306;SDS011;21420;52.196;21.416;2022-12-18T06:58:30;21.07;;;13.38;;
35306;SDS011;21420;52.196;21.416;2022-12-18T07:01:00;21.77;;;13.95;;
35306;SDS011;21420;52.196;21.416;2022-12-18T07:03:28;22.30;;;13.90;;
35306;SDS011;21420;52.196;21.416;2022-12-18T07:05:55;22.93;;;14.95;;
35306;SDS011;21420;52.196;21.416;2022-12-18T07:08:22;23.00;;;14.43;;
35306;SDS011;21420;52.196;21.416;2022-12-18T07:10:49;20.70;;;14.13;;
35306;SDS011;21420;52.196;21.416;2022-12-18T07:13:16;20.72;;;14.00;;
35306;SDS011;21420;52.196;21.416;2022-12-18T07:15:42;21.87;;;14.18;;
35306;SDS011;21420;52.196;21.416;2022-12-18T07:18:09;21.10;;;13.70;;
35306;SDS011;21420;52.196;21.416;2022-12-18T07:20:36;23.87;;;14.83;;
35306;SDS011;21420;52.196;21.416;2022-12-18T07:23:03;21.00;;;14.23;;
35306;SDS011;21420;52.196;21.416;2022-12-18T07:25:34;24.90;;;14.60;;
35306;SDS011;21420;52.196;21.416;2022-12-18T07:28:02;23.30;;;15.08;;
35306;SDS011;21420;52.196;21.416;2022-12-18T07:30:31;21.73;;;14.93;;
35306;SDS011;21420;52.196;21.416;2022-12-18T07:32:57;23.42;;;15.80;;
35306;SDS011;21420;52.196;21.416;2022-12-18T07:35:23;26.90;;;16.35;;
35306;SDS011;21420;52.196;21.416;2022-12-18T07:37:49;27.42;;;16.60;;
35306;SDS011;21420;52.196;21.416;2022-12-18T07:40:16;25.45;;;15.28;;
35306;SDS011;21420;52.196;21.416;2022-12-18T07:42:44;23.42;;;15.32;;
35306;SDS011;21420;52.196;21.416;2022-12-18T07:45:10;24.30;;;15.95;;
35306;SDS011;21420;52.196;21.416;2022-12-18T07:47:36;24.30;;;15.60;;
35306;SDS011;21420;52.196;21.416;2022-12-18T07:50:03;24.20;;;16.10;;
35306;SDS011;21420;52.196;21.416;2022-12-18T07:52:31;23.70;;;14.75;;
35306;SDS011;21420;52.196;21.416;2022-12-18T07:54:57;24.05;;;15.88;;
35306;SDS011;21420;52.196;21.416;2022-12-18T07:57:25;28.30;;;17.48;;
35306;SDS011;21420;52.196;21.416;2022-12-18T07:59:54;25.90;;;17.07;;
35306;SDS011;21420;52.196;21.416;2022-12-18T08:02:20;26.90;;;16.90;;
35306;SDS011;21420;52.196;21.416;2022-12-18T08:04:46;27.15;;;16.95;;
35306;SDS011;21420;52.196;21.416;2022-12-18T08:07:13;26.30;;;16.70;;
35306;SDS011;21420;52.196;21.416;2022-12-18T08:09:39;24.63;;;17.10;;
35306;SDS011;21420;52.196;21.416;2022-12-18T08:12:07;25.17;;;17.12;;
35306;SDS011;21420;52.196;21.416;2022-12-18T08:14:33;26.87;;;18.45;;
35306;SDS011;21420;52.196;21.416;2022-12-18T08:16:59;28.75;;;17.52;;
35306;SDS011;21420;52.196;21.416;2022-12-18T08:19:28;27.60;;;18.07;;
35306;SDS011;21420;52.196;21.416;2022-12-18T08:21:54;38.95;;;20.55;;
35306;SDS011;21420;52.196;21.416;2022-12-18T08:24:20;27.48;;;18.12;;
35306;SDS011;21420;52.196;21.416;2022-12-18T08:26:46;26.25;;;17.50;;
35306;SDS011;21420;52.196;21.416;2022-12-18T08:29:13;33.73;;;20.37;;
35306;SDS011;21420;52.196;21.416;2022-12-18T08:31:39;28.38;;;18.45;;
35306;SDS011;21420;52.196;21.416;2022-12-18T08:34:05;31.62;;;19.62;;
35306;SDS011;21420;52.196;21.416;2022-12-18T08:36:33;27.60;;;18.20;;
35306;SDS011;21420;52.196;21.416;2022-12-18T08:39:01;30.55;;;20.12;;
35306;SDS011;21420;52.196;21.416;2022-12-18T08:41:27;29.77;;;18.90;;
35306;SDS011;21420;52.196;21.416;2022-12-18T08:43:54;33.88;;;20.12;;
35306;SDS011;21420;52.196;21.416;2022-12-18T08:46:40;30.10;;;19.05;;
35306;SDS011;21420;52.196;21.416;2022-12-18T08:49:09;29.63;;;17.75;;
35306;SDS011;21420;52.196;21.416;2022-12-18T08:51:37;27.52;;;17.77;;
35306;SDS011;21420;52.196;21.416;2022-12-18T08:54:08;30.65;;;17.85;;
35306;SDS011;21420;52.196;21.416;2022-12-18T08:56:39;28.98;;;18.65;;
35306;SDS011;21420;52.196;21.416;2022-12-18T08:59:05;32.48;;;19.30;;
35306;SDS011;21420;52.196;21.416;2022-12-18T09:01:34;28.75;;;18.00;;
35306;SDS011;21420;52.196;21.416;2022-12-18T09:04:01;27.67;;;17.73;;
35306;SDS011;21420;52.196;21.416;2022-12-18T09:06:28;31.93;;;19.70;;
35306;SDS011;21420;52.196;21.416;2022-12-18T09:08:55;32.30;;;19.45;;
35306;SDS011;21420;52.196;21.416;2022-12-18T09:11:26;30.30;;;18.35;;
35306;SDS011;21420;52.196;21.416;2022-12-18T09:13:54;28.23;;;17.87;;
35306;SDS011;21420;52.196;21.416;2022-12-18T09:16:22;29.30;;;17.62;;
35306;SDS011;21420;52.196;21.416;2022-12-18T09:18:50;27.03;;;18.43;;
35306;SDS011;21420;52.196;21.416;2022-12-18T09:21:19;28.80;;;18.05;;
35306;SDS011;21420;52.196;21.416;2022-12-18T09:23:50;27.90;;;17.70;;
35306;SDS011;21420;52.196;21.416;2022-12-18T09:26:17;27.50;;;17.95;;
35306;SDS011;21420;52.196;21.416;2022-12-18T09:28:44;25.57;;;17.62;;
35306;SDS011;21420;52.196;21.416;2022-12-18T09:31:11;26.60;;;16.73;;
35306;SDS011;21420;52.196;21.416;2022-12-18T09:33:40;23.77;;;15.48;;
35306;SDS011;21420;52.196;21.416;2022-12-18T09:36:09;28.70;;;18.27;;
35306;SDS011;21420;52.196;21.416;2022-12-18T09:44:05;36.35;;;19.92;;
35306;SDS011;21420;52.196;21.416;2022-12-18T09:49:45;39.15;;;22.67;;
35306;SDS011;21420;52.196;21.416;2022-12-18T09:52:26;35.43;;;22.98;;
35306;SDS011;21420;52.196;21.416;2022-12-18T09:55:03;38.15;;;23.92;;
35306;SDS011;21420;52.196;21.416;2022-12-18T09:57:47;39.63;;;24.37;;
35306;SDS011;21420;52.196;21.416;2022-12-18T10:00:21;42.17;;;24.15;;
35306;SDS011;21420;52.196;21.416;2022-12-18T10:02:51;39.88;;;23.38;;
35306;SDS011;21420;52.196;21.416;2022-12-18T10:05:43;47.38;;;25.08;;
35306;SDS011;21420;52.196;21.416;2022-12-18T10:08:52;47.23;;;25.05;;
35306;SDS011;21420;52.196;21.416;2022-12-18T10:14:39;47.17;;;26.10;;
35306;SDS011;21420;52.196;21.416;2022-12-18T10:17:18;45.78;;;25.88;;
35306;SDS011;21420;52.196;21.416;2022-12-18T10:22:38;52.88;;;27.45;;
35306;SDS011;21420;52.196;21.416;2022-12-18T10:25:19;57.40;;;28.85;;
35306;SDS011;21420;52.196;21.416;2022-12-18T10:28:07;52.53;;;28.77;;
35306;SDS011;21420;52.196;21.416;2022-12-18T10:30:43;58.05;;;29.23;;
35306;SDS011;21420;52.196;21.416;2022-12-18T10:33:21;53.65;;;29.05;;
35306;SDS011;21420;52.196;21.416;2022-12-18T10:35:52;51.28;;;27.95;;
35306;SDS011;21420;52.196;21.416;2022-12-18T10:38:20;63.50;;;33.02;;
35306;SDS011;21420;52.196;21.416;2022-12-18T10:40:58;56.83;;;30.57;;
35306;SDS011;21420;52.196;21.416;2022-12-18T10:48:55;54.35;;;29.70;;
35306;SDS011;21420;52.196;21.416;2022-12-18T10:54:00;70.78;;;36.38;;
35306;SDS011;21420;52.196;21.416;2022-12-18T10:56:46;64.25;;;34.63;;
35306;SDS011;21420;52.196;21.416;2022-12-18T10:59:14;67.67;;;34.83;;
35306;SDS011;21420;52.196;21.416;2022-12-18T11:04:23;63.25;;;33.10;;
35306;SDS011;21420;52.196;21.416;2022-12-18T11:06:58;62.85;;;34.50;;
35306;SDS011;21420;52.196;21.416;2022-12-18T11:09:31;62.33;;;33.83;;
35306;SDS011;21420;52.196;21.416;2022-12-18T11:12:04;66.60;;;34.65;;
35306;SDS011;21420;52.196;21.416;2022-12-18T11:14:42;63.25;;;34.20;;
35306;SDS011;21420;52.196;21.416;2022-12-18T11:17:18;68.30;;;34.40;;
35306;SDS011;21420;52.196;21.416;2022-12-18T11:20:02;67.62;;;33.95;;
35306;SDS011;21420;52.196;21.416;2022-12-18T11:22:34;61.45;;;35.35;;
35306;SDS011;21420;52.196;21.416;2022-12-18T11:27:33;65.15;;;32.48;;
35306;SDS011;21420;52.196;21.416;2022-12-18T11:30:09;62.88;;;33.92;;
35306;SDS011;21420;52.196;21.416;2022-12-18T11:32:43;67.10;;;36.55;;
35306;SDS011;21420;52.196;21.416;2022-12-18T11:35:20;68.55;;;33.92;;
35306;SDS011;21420;52.196;21.416;2022-12-18T11:38:05;68.85;;;36.53;;
35306;SDS011;21420;52.196;21.416;2022-12-18T11:41:50;64.45;;;33.73;;
35306;SDS011;21420;52.196;21.416;2022-12-18T11:43:53;56.42;;;30.92;;
35306;SDS011;21420;52.196;21.416;2022-12-18T11:46:26;60.17;;;29.30;;
35306;SDS011;21420;52.196;21.416;2022-12-18T11:49:03;52.13;;;29.57;;
35306;SDS011;21420;52.196;21.416;2022-12-18T11:51:43;51.30;;;27.55;;
35306;SDS011;21420;52.196;21.416;2022-12-18T11:54:14;51.55;;;29.63;;
35306;SDS011;21420;52.196;21.416;2022-12-18T11:56:49;46.92;;;26.90;;
35306;SDS011;21420;52.196;21.416;2022-12-18T11:59:42;50.55;;;28.05;;
35306;SDS011;21420;52.196;21.416;2022-12-18T12:02:38;51.37;;;30.40;;
35306;SDS011;21420;52.196;21.416;2022-12-18T12:07:58;88.80;;;40.60;;
35306;SDS011;21420;52.196;21.416;2022-12-18T12:16:07;61.05;;;32.00;;
35306;SDS011;21420;52.196;21.416;2022-12-18T12:21:46;51.70;;;28.95;;
35306;SDS011;21420;52.196;21.416;2022-12-18T12:24:37;53.98;;;29.48;;
35306;SDS011;21420;52.196;21.416;2022-12-18T12:30:05;49.80;;;28.15;;
35306;SDS011;21420;52.196;21.416;2022-12-18T12:41:05;48.20;;;26.82;;
35306;SDS011;21420;52.196;21.416;2022-12-18T12:43:44;50.43;;;28.90;;
35306;SDS011;21420;52.196;21.416;2022-12-18T12:46:13;46.42;;;27.10;;
35306;SDS011;21420;52.196;21.416;2022-12-18T12:51:19;47.90;;;27.90;;
35306;SDS011;21420;52.196;21.416;2022-12-18T12:53:47;58.50;;;33.20;;
35306;SDS011;21420;52.196;21.416;2022-12-18T12:56:15;54.73;;;31.25;;
35306;SDS011;21420;52.196;21.416;2022-12-18T13:10:13;52.23;;;28.12;;
35306;SDS011;21420;52.196;21.416;2022-12-18T13:20:47;57.10;;;30.23;;
35306;SDS011;21420;52.196;21.416;2022-12-18T13:25:59;62.03;;;34.23;;
35306;SDS011;21420;52.196;21.416;2022-12-18T13:40:01;66.67;;;35.70;;
35306;SDS011;21420;52.196;21.416;2022-12-18T13:42:37;53.68;;;28.92;;
35306;SDS011;21420;52.196;21.416;2022-12-18T13:45:43;71.50;;;35.70;;
35306;SDS011;21420;52.196;21.416;2022-12-18T13:48:17;66.80;;;36.53;;
35306;SDS011;21420;52.196;21.416;2022-12-18T13:50:49;60.90;;;35.75;;
35306;SDS011;21420;52.196;21.416;2022-12-18T13:53:29;77.50;;;39.95;;
35306;SDS011;21420;52.196;21.416;2022-12-18T13:56:02;69.42;;;38.17;;
35306;SDS011;21420;52.196;21.416;2022-12-18T13:58:30;239.95;;;132.27;;
35306;SDS011;21420;52.196;21.416;2022-12-18T14:00:57;369.27;;;190.92;;
35306;SDS011;21420;52.196;21.416;2022-12-18T14:03:25;288.68;;;81.42;;
35306;SDS011;21420;52.196;21.416;2022-12-18T14:05:58;98.37;;;41.53;;
35306;SDS011;21420;52.196;21.416;2022-12-18T14:08:32;239.50;;;71.00;;
35306;SDS011;21420;52.196;21.416;2022-12-18T14:11:04;142.18;;;52.40;;
35306;SDS011;21420;52.196;21.416;2022-12-18T14:13:36;162.03;;;57.03;;
35306;SDS011;21420;52.196;21.416;2022-12-18T14:16:06;175.97;;;64.65;;
35306;SDS011;21420;52.196;21.416;2022-12-18T14:21:26;69.60;;;35.03;;
35306;SDS011;21420;52.196;21.416;2022-12-18T14:26:35;65.45;;;34.78;;
35306;SDS011;21420;52.196;21.416;2022-12-18T14:29:18;71.53;;;37.35;;
35306;SDS011;21420;52.196;21.416;2022-12-18T14:34:44;181.67;;;61.30;;
35306;SDS011;21420;52.196;21.416;2022-12-18T14:37:18;133.27;;;54.90;;
35306;SDS011;21420;52.196;21.416;2022-12-18T14:39:54;123.33;;;48.25;;
35306;SDS011;21420;52.196;21.416;2022-12-18T14:42:31;254.43;;;138.80;;
35306;SDS011;21420;52.196;21.416;2022-12-18T14:48:07;153.95;;;55.12;;
35306;SDS011;21420;52.196;21.416;2022-12-18T14:50:40;331.23;;;106.27;;
35306;SDS011;21420;52.196;21.416;2022-12-18T14:53:18;232.93;;;78.17;;
35306;SDS011;21420;52.196;21.416;2022-12-18T14:55:55;130.52;;;55.65;;
35306;SDS011;21420;52.196;21.416;2022-12-18T14:58:21;120.87;;;51.50;;
35306;SDS011;21420;52.196;21.416;2022-12-18T15:00:48;118.82;;;54.20;;
35306;SDS011;21420;52.196;21.416;2022-12-18T15:03:17;173.93;;;73.22;;
35306;SDS011;21420;52.196;21.416;2022-12-18T15:05:48;93.72;;;50.80;;
35306;SDS011;21420;52.196;21.416;2022-12-18T15:08:28;113.52;;;53.78;;
35306;SDS011;21420;52.196;21.416;2022-12-18T15:11:00;93.60;;;46.90;;
35306;SDS011;21420;52.196;21.416;2022-12-18T15:13:27;83.60;;;39.13;;
35306;SDS011;21420;52.196;21.416;2022-12-18T15:15:56;70.87;;;37.65;;
35306;SDS011;21420;52.196;21.416;2022-12-18T15:18:32;71.33;;;36.58;;
35306;SDS011;21420;52.196;21.416;2022-12-18T15:21:08;72.90;;;37.30;;
35306;SDS011;21420;52.196;21.416;2022-12-18T15:26:15;86.92;;;44.10;;
35306;SDS011;21420;52.196;21.416;2022-12-18T15:31:31;78.85;;;40.55;;
35306;SDS011;21420;52.196;21.416;2022-12-18T15:36:36;90.22;;;44.93;;
35306;SDS011;21420;52.196;21.416;2022-12-18T15:39:03;88.42;;;42.50;;
35306;SDS011;21420;52.196;21.416;2022-12-18T15:41:32;75.37;;;37.67;;
35306;SDS011;21420;52.196;21.416;2022-12-18T15:44:00;81.50;;;41.13;;
35306;SDS011;21420;52.196;21.416;2022-12-18T15:46:26;76.05;;;41.20;;
35306;SDS011;21420;52.196;21.416;2022-12-18T15:48:54;83.80;;;39.98;;
35306;SDS011;21420;52.196;21.416;2022-12-18T15:54:02;79.37;;;39.45;;
35306;SDS011;21420;52.196;21.416;2022-12-18T15:56:31;74.07;;;38.23;;
35306;SDS011;21420;52.196;21.416;2022-12-18T15:59:17;101.42;;;52.73;;
35306;SDS011;21420;52.196;21.416;2022-12-18T16:01:50;130.07;;;59.60;;
35306;SDS011;21420;52.196;21.416;2022-12-18T16:04:16;85.35;;;41.63;;
35306;SDS011;21420;52.196;21.416;2022-12-18T16:06:45;85.87;;;42.62;;
35306;SDS011;21420;52.196;21.416;2022-12-18T16:09:13;65.03;;;34.53;;
35306;SDS011;21420;52.196;21.416;2022-12-18T16:11:41;64.15;;;34.30;;
35306;SDS011;21420;52.196;21.416;2022-12-18T16:16:50;62.43;;;33.48;;
35306;SDS011;21420;52.196;21.416;2022-12-18T16:19:23;66.33;;;34.45;;
35306;SDS011;21420;52.196;21.416;2022-12-18T16:21:51;68.47;;;35.98;;
35306;SDS011;21420;52.196;21.416;2022-12-18T16:24:22;67.87;;;34.95;;
35306;SDS011;21420;52.196;21.416;2022-12-18T16:26:51;71.40;;;34.80;;
35306;SDS011;21420;52.196;21.416;2022-12-18T16:29:20;144.77;;;67.08;;
35306;SDS011;21420;52.196;21.416;2022-12-18T16:31:51;107.52;;;51.42;;
35306;SDS011;21420;52.196;21.416;2022-12-18T16:34:25;71.30;;;35.13;;
35306;SDS011;21420;52.196;21.416;2022-12-18T16:36:58;66.65;;;35.80;;
35306;SDS011;21420;52.196;21.416;2022-12-18T16:39:27;62.80;;;33.40;;
35306;SDS011;21420;52.196;21.416;2022-12-18T16:41:55;60.67;;;31.12;;
35306;SDS011;21420;52.196;21.416;2022-12-18T16:44:22;70.28;;;34.60;;
35306;SDS011;21420;52.196;21.416;2022-12-18T16:46:51;61.98;;;32.75;;
35306;SDS011;21420;52.196;21.416;2022-12-18T16:49:18;70.72;;;36.35;;
35306;SDS011;21420;52.196;21.416;2022-12-18T16:51:46;67.50;;;32.40;;
35306;SDS011;21420;52.196;21.416;2022-12-18T16:54:13;62.88;;;33.40;;
35306;SDS011;21420;52.196;21.416;2022-12-18T16:56:40;73.80;;;37.83;;
35306;SDS011;21420;52.196;21.416;2022-12-18T16:59:09;63.30;;;31.95;;
35306;SDS011;21420;52.196;21.416;2022-12-18T17:01:36;68.65;;;33.70;;
35306;SDS011;21420;52.196;21.416;2022-12-18T17:04:04;62.27;;;33.35;;